createdAt,value
2023-02-23T00:02:08.935Z,43.60
2023-02-23T00:04:36.873Z,41.43
2023-02-23T00:07:06.158Z,43.43
2023-02-23T00:09:36.997Z,40.40
2023-02-23T00:12:09.476Z,42.47
2023-02-23T00:14:40.635Z,43.20
2023-02-23T00:17:14.555Z,46.23
2023-02-23T00:19:43.556Z,38.80
2023-02-23T00:22:12.015Z,41.57
2023-02-23T00:24:42.322Z,43.50
2023-02-23T00:27:10.040Z,42.47
2023-02-23T00:29:40.700Z,37.60
2023-02-23T00:32:08.605Z,39.53
2023-02-23T00:34:36.835Z,40.97
2023-02-23T00:37:04.622Z,43.23
2023-02-23T00:39:32.102Z,41.43
2023-02-23T00:42:03.045Z,37.57
2023-02-23T00:44:30.753Z,43.90
2023-02-23T00:46:58.011Z,39.80
2023-02-23T00:49:25.431Z,46.93
2023-02-23T00:51:53.466Z,42.07
2023-02-23T00:54:21.672Z,41.20
2023-02-23T00:56:49.408Z,43.70
2023-02-23T00:59:21.530Z,42.20
2023-02-23T01:01:50.332Z,40.20
2023-02-23T01:04:23.136Z,45.80
2023-02-23T01:06:50.605Z,41.43
2023-02-23T01:09:28.035Z,41.03
2023-02-23T01:11:56.866Z,42.40
2023-02-23T01:14:24.577Z,48.30
2023-02-23T01:16:52.142Z,43.13
2023-02-23T01:19:19.718Z,40.60
2023-02-23T01:21:50.938Z,41.50
2023-02-23T01:24:18.472Z,46.50
2023-02-23T01:26:46.217Z,43.67
2023-02-23T01:29:18.196Z,38.17
2023-02-23T01:31:47.125Z,38.03
2023-02-23T01:34:18.692Z,41.43
2023-02-23T01:36:46.421Z,42.97
2023-02-23T01:39:15.431Z,46.00
2023-02-23T01:41:44.377Z,41.83
2023-02-23T01:44:14.792Z,47.70
2023-02-23T01:46:46.671Z,40.00
2023-02-23T01:49:20.499Z,49.60
2023-02-23T01:51:50.406Z,45.07
2023-02-23T01:54:22.316Z,44.17
2023-02-23T01:56:58.199Z,45.03
2023-02-23T01:59:29.453Z,40.87
2023-02-23T02:01:57.195Z,47.07
2023-02-23T02:04:26.016Z,45.57
2023-02-23T02:06:55.331Z,43.00
2023-02-23T02:09:25.717Z,46.27
2023-02-23T02:11:55.675Z,45.93
2023-02-23T02:14:28.646Z,41.27
2023-02-23T02:17:15.380Z,45.30
2023-02-23T02:19:43.970Z,48.83
2023-02-23T02:22:29.330Z,50.73
2023-02-23T02:25:03.067Z,46.43
2023-02-23T02:27:43.621Z,45.03
2023-02-23T02:30:13.627Z,49.63
2023-02-23T02:32:42.137Z,48.80
2023-02-23T02:35:32.285Z,50.00
2023-02-23T02:38:05.680Z,44.47
2023-02-23T02:40:54.662Z,46.00
2023-02-23T02:43:40.728Z,52.70
2023-02-23T02:46:13.241Z,48.00
2023-02-23T02:48:52.819Z,47.33
2023-02-23T02:51:21.454Z,47.87
2023-02-23T02:54:07.015Z,49.13
2023-02-23T02:56:40.521Z,52.03
2023-02-23T02:59:31.414Z,51.33
2023-02-23T03:02:18.123Z,47.37
2023-02-23T03:05:04.279Z,44.20
2023-02-23T03:07:54.844Z,49.60
2023-02-23T03:10:48.723Z,49.67
2023-02-23T03:13:53.778Z,51.60
2023-02-23T03:16:52.398Z,52.60
2023-02-23T03:19:44.311Z,53.80
2023-02-23T03:22:42.439Z,45.87
2023-02-23T03:25:31.238Z,56.70
2023-02-23T03:28:30.454Z,59.33
2023-02-23T03:31:25.666Z,49.33
2023-02-23T03:34:11.809Z,52.17
2023-02-23T03:37:00.136Z,47.87
2023-02-23T03:40:12.629Z,50.73
2023-02-23T03:43:00.653Z,51.87
2023-02-23T03:45:48.456Z,54.83
2023-02-23T03:48:36.366Z,59.40
2023-02-23T03:51:24.771Z,56.70
2023-02-23T03:54:13.627Z,53.57
2023-02-23T03:57:02.288Z,52.97
2023-02-23T03:59:51.766Z,54.27
2023-02-23T04:02:38.489Z,57.77
2023-02-23T04:05:30.480Z,54.63
2023-02-23T04:08:18.523Z,60.70
2023-02-23T04:11:07.889Z,61.83
2023-02-23T04:13:41.271Z,60.77
2023-02-23T04:16:09.832Z,60.87
2023-02-23T04:18:38.684Z,58.03
2023-02-23T04:21:06.343Z,62.63
2023-02-23T04:23:35.580Z,67.30
2023-02-23T04:26:02.764Z,53.47
2023-02-23T04:28:29.985Z,56.27
2023-02-23T04:30:57.187Z,65.37
2023-02-23T04:33:25.390Z,66.70
2023-02-23T04:35:54.148Z,59.17
2023-02-23T04:38:21.629Z,58.60
2023-02-23T04:40:48.772Z,61.37
2023-02-23T04:43:16.005Z,59.57
2023-02-23T04:45:44.505Z,62.00
2023-02-23T04:48:12.029Z,57.43
2023-02-23T04:50:39.620Z,58.63
2023-02-23T04:53:06.824Z,70.03
2023-02-23T04:55:34.102Z,61.17
2023-02-23T04:58:02.172Z,70.27
2023-02-23T05:00:29.724Z,60.73
2023-02-23T05:02:57.214Z,61.67
2023-02-23T05:05:24.420Z,64.13
2023-02-23T05:07:56.630Z,66.30
2023-02-23T05:10:24.276Z,73.10
2023-02-23T05:12:51.425Z,63.83
2023-02-23T05:15:18.657Z,61.70
2023-02-23T05:17:45.817Z,67.40
2023-02-23T05:20:15.063Z,65.97
2023-02-23T05:22:42.665Z,68.27
2023-02-23T05:25:10.383Z,67.17
2023-02-23T05:27:37.804Z,61.50
2023-02-23T05:30:07.295Z,65.53
2023-02-23T05:32:37.029Z,60.03
2023-02-23T05:35:04.428Z,64.23
2023-02-23T05:37:31.733Z,68.90
2023-02-23T05:39:58.878Z,63.53
2023-02-23T05:42:26.313Z,71.73
2023-02-23T05:44:53.651Z,67.10
2023-02-23T05:47:20.806Z,59.97
2023-02-23T05:49:47.995Z,63.23
2023-02-23T05:52:15.185Z,73.20
2023-02-23T05:54:43.678Z,58.47
2023-02-23T05:57:11.624Z,63.20
2023-02-23T05:59:40.195Z,68.33
2023-02-23T06:02:07.325Z,67.73
2023-02-23T06:04:34.479Z,61.33
2023-02-23T06:07:01.679Z,66.50
2023-02-23T06:09:29.705Z,76.73
2023-02-23T06:11:59.400Z,70.73
2023-02-23T06:14:26.535Z,75.27
2023-02-23T06:16:53.854Z,74.57
2023-02-23T06:19:21.581Z,74.00
2023-02-23T06:21:48.787Z,74.60
2023-02-23T06:24:17.728Z,69.17
2023-02-23T06:26:44.912Z,68.37
2023-02-23T06:29:12.291Z,76.10
2023-02-23T06:31:42.815Z,78.90
2023-02-23T06:34:11.432Z,84.13
2023-02-23T06:36:38.654Z,82.97
2023-02-23T06:39:06.136Z,86.03
2023-02-23T06:41:41.152Z,83.20
2023-02-23T06:44:11.031Z,87.83
2023-02-23T06:46:40.304Z,92.17
2023-02-23T06:49:07.472Z,92.13
2023-02-23T06:51:34.896Z,79.40
2023-02-23T06:54:02.417Z,86.13
2023-02-23T06:56:30.737Z,82.97
2023-02-23T06:58:57.880Z,85.07
2023-02-23T07:01:25.031Z,85.20
2023-02-23T07:03:52.212Z,83.07
2023-02-23T07:06:19.396Z,82.83
2023-02-23T07:08:46.565Z,85.73
2023-02-23T07:11:15.522Z,84.37
2023-02-23T07:13:44.070Z,86.83
2023-02-23T07:16:16.252Z,82.10
2023-02-23T07:18:44.772Z,84.83
2023-02-23T07:21:11.927Z,80.43
2023-02-23T07:23:39.088Z,82.37
2023-02-23T07:26:06.223Z,78.43
2023-02-23T07:28:34.407Z,73.53
2023-02-23T07:31:01.871Z,78.37
2023-02-23T07:33:29.106Z,86.83
2023-02-23T07:35:56.251Z,73.43
2023-02-23T07:38:24.816Z,84.60
2023-02-23T07:40:52.224Z,82.83
2023-02-23T07:43:22.571Z,85.97
2023-02-23T07:45:53.139Z,80.30
2023-02-23T07:48:20.633Z,84.30
2023-02-23T07:50:48.561Z,84.90
2023-02-23T07:53:15.816Z,75.63
2023-02-23T07:55:42.959Z,79.57
2023-02-23T07:58:10.314Z,74.67
2023-02-23T08:00:39.938Z,69.90
2023-02-23T08:03:07.710Z,85.23
2023-02-23T08:05:36.633Z,75.20
2023-02-23T08:08:03.974Z,76.90
2023-02-23T08:10:32.931Z,79.53
2023-02-23T08:13:01.489Z,75.90
2023-02-23T08:15:29.276Z,67.50
2023-02-23T08:17:58.758Z,63.73
2023-02-23T08:20:27.621Z,75.07
2023-02-23T08:22:55.876Z,70.73
2023-02-23T08:25:23.185Z,67.37
2023-02-23T08:27:53.701Z,69.83
2023-02-23T08:30:25.004Z,71.53
2023-02-23T08:32:52.237Z,65.50
2023-02-23T08:35:20.191Z,68.83
2023-02-23T08:37:47.402Z,68.23
2023-02-23T08:40:19.461Z,62.80
2023-02-23T08:42:48.537Z,70.20
2023-02-23T08:45:15.931Z,74.20
2023-02-23T08:47:43.080Z,65.17
2023-02-23T08:50:10.984Z,68.00
2023-02-23T08:52:38.688Z,62.07
2023-02-23T08:55:06.468Z,64.53
2023-02-23T08:57:34.417Z,68.37
2023-02-23T09:00:02.037Z,64.77
2023-02-23T09:02:29.502Z,66.23
2023-02-23T09:04:57.356Z,69.27
2023-02-23T09:07:25.609Z,64.17
2023-02-23T09:10:01.440Z,69.17
2023-02-23T09:12:29.874Z,64.73
2023-02-23T09:14:57.926Z,65.53
2023-02-23T09:17:28.344Z,65.63
2023-02-23T09:19:55.585Z,66.07
2023-02-23T09:22:22.754Z,56.60
2023-02-23T09:24:50.848Z,57.10
2023-02-23T09:27:19.287Z,61.67
2023-02-23T09:29:46.441Z,65.60
2023-02-23T09:32:14.113Z,59.97
2023-02-23T09:34:41.355Z,58.13
2023-02-23T09:37:11.780Z,53.67
2023-02-23T09:39:39.305Z,65.03
2023-02-23T09:42:08.249Z,61.77
2023-02-23T09:45:08.094Z,59.60
2023-02-23T09:47:54.413Z,54.23
2023-02-23T09:50:22.663Z,60.63
2023-02-23T09:52:56.270Z,61.53
2023-02-23T09:55:23.968Z,55.50
2023-02-23T09:57:51.626Z,57.83
2023-02-23T10:00:27.688Z,67.17
2023-02-23T10:03:01.908Z,58.63
2023-02-23T10:05:31.762Z,54.50
2023-02-23T10:08:09.225Z,53.33
2023-02-23T10:10:48.874Z,56.73
2023-02-23T10:13:28.431Z,49.13
2023-02-23T10:15:58.083Z,55.83
2023-02-23T10:18:46.096Z,46.37
2023-02-23T10:21:14.262Z,50.00
2023-02-23T10:23:46.339Z,46.23
2023-02-23T10:26:18.913Z,47.47
2023-02-23T10:28:46.971Z,48.30
2023-02-23T10:31:29.583Z,49.87
2023-02-23T10:34:01.630Z,52.90
2023-02-23T10:36:40.876Z,45.23
2023-02-23T10:39:08.977Z,47.47
2023-02-23T10:41:38.031Z,44.87
2023-02-23T10:44:16.506Z,49.10
2023-02-23T10:46:44.681Z,47.00
2023-02-23T10:49:19.932Z,48.83
2023-02-23T10:51:47.246Z,47.50
2023-02-23T10:54:33.110Z,50.67
2023-02-23T10:57:00.292Z,42.87
2023-02-23T10:59:28.766Z,42.43
2023-02-23T11:02:02.453Z,41.73
2023-02-23T11:04:35.339Z,45.23
2023-02-23T11:07:10.083Z,44.80
2023-02-23T11:09:46.476Z,43.63
2023-02-23T11:12:26.363Z,45.47
2023-02-23T11:14:56.155Z,42.50
2023-02-23T11:17:33.861Z,36.50
2023-02-23T11:20:03.083Z,34.37
2023-02-23T11:22:37.663Z,41.40
2023-02-23T11:25:16.148Z,40.17
2023-02-23T11:27:46.637Z,40.47
2023-02-23T11:30:14.074Z,37.33
2023-02-23T11:32:43.847Z,36.67
2023-02-23T11:35:12.944Z,37.53
2023-02-23T11:37:41.879Z,29.87
2023-02-23T11:40:18.200Z,30.87
2023-02-23T11:42:53.532Z,29.53
2023-02-23T11:45:21.545Z,26.80
2023-02-23T11:47:50.424Z,32.63
2023-02-23T11:50:22.503Z,27.97
2023-02-23T11:52:52.941Z,30.63
2023-02-23T11:55:20.210Z,34.40
2023-02-23T11:57:49.637Z,27.87
2023-02-23T12:00:23.087Z,29.53
2023-02-23T12:02:53.556Z,23.00
2023-02-23T12:05:22.661Z,26.10
2023-02-23T12:08:05.279Z,27.10
2023-02-23T12:10:39.817Z,25.30
2023-02-23T12:13:16.338Z,25.80
2023-02-23T12:15:55.311Z,25.97
2023-02-23T12:18:40.990Z,23.53
2023-02-23T12:21:16.210Z,20.97
2023-02-23T12:23:46.929Z,21.73
2023-02-23T12:26:18.998Z,22.30
2023-02-23T12:29:02.448Z,19.30
2023-02-23T12:31:44.444Z,24.77
2023-02-23T12:34:14.968Z,19.90
2023-02-23T12:36:48.213Z,17.50
2023-02-23T12:39:17.761Z,18.50
2023-02-23T12:41:49.345Z,20.33
2023-02-23T12:44:32.241Z,24.70
2023-02-23T12:47:04.788Z,21.43
2023-02-23T12:49:42.281Z,23.27
2023-02-23T12:52:10.518Z,19.80
2023-02-23T12:54:38.052Z,27.70
2023-02-23T12:57:06.485Z,31.77
2023-02-23T12:59:44.026Z,22.20
2023-02-23T13:02:17.568Z,22.00
2023-02-23T13:04:50.594Z,20.50
2023-02-23T13:07:17.729Z,18.67
2023-02-23T13:09:51.101Z,18.43
2023-02-23T13:12:35.933Z,20.57
2023-02-23T13:15:20.781Z,20.40
2023-02-23T13:17:53.066Z,20.27
2023-02-23T13:20:39.254Z,17.07
2023-02-23T13:23:24.627Z,17.90
2023-02-23T13:26:01.628Z,12.90
2023-02-23T13:28:42.626Z,10.77
2023-02-23T13:31:20.990Z,15.30
2023-02-23T13:33:49.639Z,9.37
2023-02-23T13:36:17.552Z,11.03
2023-02-23T13:38:56.980Z,12.60
2023-02-23T13:41:27.320Z,9.20
2023-02-23T13:44:02.093Z,11.27
2023-02-23T13:46:42.299Z,10.30
2023-02-23T13:49:17.923Z,11.30
2023-02-23T13:51:51.114Z,13.63
2023-02-23T13:54:22.730Z,8.70
2023-02-23T13:56:52.477Z,9.03
2023-02-23T13:59:24.223Z,13.77
2023-02-23T14:01:53.436Z,12.63
2023-02-23T14:04:28.655Z,11.20
2023-02-23T14:06:58.994Z,8.30
2023-02-23T14:09:39.234Z,10.40
2023-02-23T14:12:16.559Z,9.60
2023-02-23T14:14:44.875Z,10.60
2023-02-23T14:17:12.381Z,9.50
2023-02-23T14:19:44.918Z,13.30
2023-02-23T14:22:15.033Z,12.57
2023-02-23T14:24:43.283Z,12.43
2023-02-23T14:27:27.641Z,12.47
2023-02-23T14:30:10.988Z,12.90
2023-02-23T14:32:39.521Z,13.03
2023-02-23T14:35:06.926Z,10.67
2023-02-23T14:37:43.764Z,13.00
2023-02-23T14:40:25.428Z,16.80
2023-02-23T14:42:54.273Z,10.87
2023-02-23T14:45:32.501Z,13.30
2023-02-23T14:48:03.340Z,13.30
2023-02-23T14:50:32.282Z,16.00
2023-02-23T14:53:02.165Z,19.73
2023-02-23T14:55:32.458Z,17.70
2023-02-23T14:57:59.845Z,11.60
2023-02-23T15:00:28.645Z,12.50
2023-02-23T15:03:13.461Z,13.00
2023-02-23T15:05:45.419Z,16.70
2023-02-23T15:08:16.448Z,17.83
2023-02-23T15:10:48.076Z,22.10
2023-02-23T15:13:28.999Z,21.73
2023-02-23T15:15:58.716Z,18.20
2023-02-23T15:19:03.553Z,22.13
2023-02-23T15:21:54.256Z,19.97
2023-02-23T15:24:27.662Z,19.57
2023-02-23T15:26:56.412Z,21.37
2023-02-23T15:29:24.921Z,14.17
2023-02-23T15:31:54.063Z,16.07
2023-02-23T15:34:30.669Z,17.13
2023-02-23T15:37:04.183Z,17.10
2023-02-23T15:39:46.546Z,17.77
2023-02-23T15:42:20.395Z,19.50
2023-02-23T15:44:55.386Z,23.13
2023-02-23T15:47:28.284Z,11.70
2023-02-23T15:50:34.981Z,14.93
2023-02-23T15:53:08.794Z,18.70
2023-02-23T15:55:37.319Z,18.93
2023-02-23T15:58:18.263Z,15.83
2023-02-23T16:00:46.017Z,14.73
2023-02-23T16:03:23.440Z,13.50
2023-02-23T16:06:00.105Z,17.40
2023-02-23T16:08:29.441Z,14.73
2023-02-23T16:11:04.930Z,16.00
2023-02-23T16:13:35.055Z,13.43
2023-02-23T16:16:02.301Z,20.63
2023-02-23T16:18:39.983Z,16.17
2023-02-23T16:21:07.827Z,13.13
2023-02-23T16:23:37.563Z,15.50
2023-02-23T16:26:15.730Z,12.47
2023-02-23T16:28:44.207Z,17.30
2023-02-23T16:31:16.537Z,15.40
2023-02-23T16:33:54.137Z,15.47
2023-02-23T16:36:23.192Z,15.73
2023-02-23T16:38:58.904Z,11.53
2023-02-23T16:41:27.173Z,14.27
2023-02-23T16:43:55.319Z,15.37
2023-02-23T16:46:24.546Z,13.70
2023-02-23T16:48:52.691Z,16.37
2023-02-23T16:51:22.714Z,18.60
2023-02-23T16:53:51.906Z,16.80
2023-02-23T16:56:21.321Z,17.37
2023-02-23T16:58:53.534Z,17.47
2023-02-23T17:01:22.049Z,17.50
2023-02-23T17:03:53.138Z,13.87
2023-02-23T17:06:21.461Z,18.53
2023-02-23T17:08:58.153Z,16.33
2023-02-23T17:11:26.165Z,18.87
2023-02-23T17:13:55.345Z,15.47
2023-02-23T17:16:22.822Z,16.53
2023-02-23T17:18:50.234Z,19.33
2023-02-23T17:21:23.496Z,21.63
2023-02-23T17:23:51.110Z,17.00
2023-02-23T17:26:21.650Z,16.53
2023-02-23T17:28:49.192Z,18.80
2023-02-23T17:31:17.392Z,16.03
2023-02-23T17:33:45.093Z,15.83
2023-02-23T17:36:13.893Z,14.60
2023-02-23T17:38:44.508Z,17.63
2023-02-23T17:41:14.302Z,21.60
2023-02-23T17:43:41.811Z,19.57
2023-02-23T17:46:10.912Z,20.13
2023-02-23T17:48:49.616Z,18.90
2023-02-23T17:51:19.286Z,22.23
2023-02-23T17:53:46.632Z,21.00
2023-02-23T17:56:15.899Z,21.10
2023-02-23T17:58:43.064Z,25.27
2023-02-23T18:01:10.476Z,26.33
2023-02-23T18:03:38.178Z,22.40
2023-02-23T18:06:09.525Z,21.47
2023-02-23T18:08:37.264Z,27.10
2023-02-23T18:11:04.521Z,27.47
2023-02-23T18:13:33.672Z,24.70
2023-02-23T18:16:02.569Z,29.10
2023-02-23T18:18:29.932Z,23.50
2023-02-23T18:20:58.229Z,24.70
2023-02-23T18:23:25.953Z,31.97
2023-02-23T18:25:53.172Z,25.63
2023-02-23T18:28:20.390Z,25.57
2023-02-23T18:30:47.965Z,29.30
2023-02-23T18:33:15.200Z,29.73
2023-02-23T18:35:44.851Z,27.07
2023-02-23T18:38:12.597Z,33.53
2023-02-23T18:40:41.416Z,26.10
2023-02-23T18:43:12.522Z,26.00
2023-02-23T18:45:40.680Z,26.60
2023-02-23T18:48:10.733Z,30.60
2023-02-23T18:50:37.869Z,24.97
2023-02-23T18:53:06.027Z,27.23
2023-02-23T18:55:33.211Z,25.33
2023-02-23T18:58:03.001Z,28.87
2023-02-23T19:00:33.962Z,28.00
2023-02-23T19:03:01.464Z,28.07
2023-02-23T19:05:28.690Z,30.30
2023-02-23T19:07:56.086Z,37.10
2023-02-23T19:10:23.270Z,34.17
2023-02-23T19:12:50.536Z,25.70
2023-02-23T19:15:17.815Z,25.43
2023-02-23T19:17:46.507Z,30.70
2023-02-23T19:20:14.978Z,28.37
2023-02-23T19:22:42.384Z,23.70
2023-02-23T19:25:14.069Z,25.33
2023-02-23T19:27:41.661Z,25.83
2023-02-23T19:30:09.998Z,30.07
2023-02-23T19:32:39.851Z,25.93
2023-02-23T19:35:08.964Z,23.80
2023-02-23T19:37:36.154Z,23.30
2023-02-23T19:40:03.949Z,25.17
2023-02-23T19:42:32.636Z,25.30
2023-02-23T19:45:01.632Z,39.27
2023-02-23T19:47:28.869Z,26.23
2023-02-23T19:49:56.043Z,26.90
2023-02-23T19:52:24.646Z,23.13
2023-02-23T19:54:51.770Z,24.27
2023-02-23T19:57:20.629Z,26.47
2023-02-23T19:59:47.789Z,25.87
2023-02-23T20:02:15.462Z,27.87
2023-02-23T20:04:42.680Z,25.40
2023-02-23T20:07:11.401Z,25.90
2023-02-23T20:09:38.621Z,24.90
2023-02-23T20:12:06.086Z,22.13
2023-02-23T20:14:33.337Z,26.87
2023-02-23T20:17:00.947Z,25.73
2023-02-23T20:19:28.204Z,21.10
2023-02-23T20:21:55.431Z,25.80
2023-02-23T20:24:22.861Z,24.67
2023-02-23T20:26:52.245Z,24.40
2023-02-23T20:29:19.628Z,21.07
2023-02-23T20:31:51.296Z,21.67
2023-02-23T20:34:22.189Z,24.67
2023-02-23T20:36:51.018Z,22.70
2023-02-23T20:39:21.105Z,21.63
2023-02-23T20:41:53.244Z,22.40
2023-02-23T20:44:21.286Z,22.97
2023-02-23T20:46:48.455Z,21.47
2023-02-23T20:49:19.298Z,26.07
2023-02-23T20:51:48.444Z,21.03
2023-02-23T20:54:15.869Z,23.80
2023-02-23T20:56:43.521Z,24.87
2023-02-23T20:59:11.276Z,27.97
2023-02-23T21:01:40.306Z,30.00
2023-02-23T21:04:07.926Z,21.93
2023-02-23T21:06:35.410Z,27.50
2023-02-23T21:09:04.090Z,22.90
2023-02-23T21:11:32.041Z,23.90
2023-02-23T21:13:59.938Z,28.00
2023-02-23T21:16:32.089Z,33.20
2023-02-23T21:19:05.193Z,25.80
2023-02-23T21:21:38.294Z,27.90
2023-02-23T21:24:05.549Z,23.07
2023-02-23T21:26:33.091Z,24.90
2023-02-23T21:29:00.333Z,25.90
2023-02-23T21:31:27.505Z,21.20
2023-02-23T21:33:54.812Z,21.53
2023-02-23T21:36:22.049Z,22.13
2023-02-23T21:38:49.685Z,25.00
2023-02-23T21:41:16.867Z,26.63
2023-02-23T21:43:44.901Z,27.33
2023-02-23T21:46:13.641Z,25.83
2023-02-23T21:48:41.068Z,24.80
2023-02-23T21:51:11.493Z,27.43
2023-02-23T21:53:39.229Z,24.27
2023-02-23T21:56:07.608Z,30.93
2023-02-23T21:58:34.908Z,32.97
2023-02-23T22:01:09.908Z,33.33
2023-02-23T22:03:37.039Z,32.10
2023-02-23T22:06:04.303Z,33.60
2023-02-23T22:08:31.454Z,30.60
2023-02-23T22:10:58.565Z,28.20
2023-02-23T22:13:26.721Z,29.93
2023-02-23T22:15:58.884Z,30.13
2023-02-23T22:18:26.173Z,31.53
2023-02-23T22:20:57.732Z,25.37
2023-02-23T22:23:25.399Z,25.93
2023-02-23T22:25:52.878Z,30.73
2023-02-23T22:28:20.044Z,29.37
2023-02-23T22:30:50.858Z,29.13
2023-02-23T22:33:19.554Z,29.30
2023-02-23T22:35:47.057Z,28.60
2023-02-23T22:38:14.282Z,29.37
2023-02-23T22:40:42.207Z,35.30
2023-02-23T22:43:10.657Z,30.50
2023-02-23T22:45:38.663Z,24.93
2023-02-23T22:48:06.728Z,26.63
2023-02-23T22:50:34.585Z,29.40
2023-02-23T22:53:01.764Z,30.50
2023-02-23T22:55:29.545Z,30.70
2023-02-23T22:57:58.264Z,28.97
2023-02-23T23:00:27.024Z,32.00
2023-02-23T23:02:58.597Z,27.50
2023-02-23T23:05:26.455Z,30.50
2023-02-23T23:07:53.771Z,30.83
2023-02-23T23:10:21.105Z,32.50
2023-02-23T23:12:48.875Z,28.60
2023-02-23T23:15:17.478Z,31.73
2023-02-23T23:17:51.068Z,33.30
2023-02-23T23:20:22.804Z,27.70
2023-02-23T23:22:50.197Z,34.00
2023-02-23T23:25:23.432Z,30.73
2023-02-23T23:27:54.476Z,28.13
2023-02-23T23:30:23.325Z,33.83
2023-02-23T23:32:51.086Z,28.83
2023-02-23T23:35:22.328Z,29.57
2023-02-23T23:37:53.005Z,29.03
2023-02-23T23:40:24.223Z,32.37
2023-02-23T23:42:52.643Z,27.93
2023-02-23T23:45:24.507Z,31.13
2023-02-23T23:47:52.175Z,31.47
2023-02-23T23:50:24.339Z,27.23
2023-02-23T23:52:51.783Z,27.60
2023-02-23T23:55:19.247Z,29.63
2023-02-23T23:57:46.637Z,27.37
